Greenwood Springs, MS (38848)

1:50 PM CDT on July 25, 2014 (GMT -0500)
Aberdeen / Amory (KM40) Elev 223 ft | 33.87 °N, 88.49 °W | Change Station

Current weather conditions updated 15 minutes ago

Partly Cloudy
Partly Cloudy
88 °F
Feels Like 93 °F
N
7
Wind Variable Wind from NW

Today is forecast to be Cooler than yesterday.

Today
High -- | Low -- °F
--% Chance of Precip.
Yesterday
High -- | Low -- °F
Precip. -- in
6:00 AM 7:59 PM
Waning Crescent, 1% visible
Pressure 30.03 in
Visibility 10.0 miles
Clouds Few 10000 ft
Heat Index 93 °F
Dew Point 70 °F
Humidity 55%
Rainfall 0.00 in
Snow Depth Not available.
UV 11 out of 12
Pollen 4.00 out of 12
Air Quality Not available.
Flu Activity Not available.
METAR KM40 251835Z AUTO 31006KT 10SM FEW100 31/21 A3003 RMK AO2

More Conditions Fewer Conditions

Pressure 30.03 in
Visibility 10.0 miles
Clouds Few 10000 ft
Heat Index 93 °F
Dew Point 70 °F
Humidity 55%
Rainfall 0.00 in
Snow Depth Not available.
UV 11 out of 12
Pollen 4.00 out of 12
Air Quality Not available.
Flu Activity Not available.
METAR KM40 251835Z AUTO 31006KT 10SM FEW100 31/21 A3003 RMK AO2

More Conditions Fewer Conditions

10-Day Weather Forecast

Almanac

Astronomy

Jul. 25, 2014 Rise Set
Actual Time 6:00 AM CDT 7:59 PM CDT
Civil Twilight 5:32 AM CDT 8:27 PM CDT
Nautical Twilight 4:58 AM CDT 9:00 PM CDT
Astronomical Twilight 4:22 AM CDT 9:36 PM CDT
Moon 4:57 AM CDT 6:58 PM CDT
Length of Visible Light 14h 54m
Length of Day
13h 59m
Tomorrow will be 1m 24s shorter.
Waning Crescent, 1% of the Moon is Illuminated
Today
Waning Crescent
Jul 26
New
Aug 3
First Quarter
Aug 10
Full
Aug 17
Last Quarter

Today's Extremes

State Highs State Lows

Community

WunderPhotos

Upload Photos

1,737,371 photos uploaded!

Nearby

Snow Depth

Station Depth Elevation
No new snow has been reported.

Earthquake Activity

City Distance Mag. Time & Date
No recent earthquake activity has been reported nearby.
Minimum magnitude displayed is 2.5.

Coastal Water Temperatures

Place Temperature
No Stations Reporting

Nearby Weather Stations

Station Location Temp. Heat Index Dew Point Humidity Wind Precip. Elev Updated Type
Vernon Alabama, Sulligent, AL 81.9 °F 86 °F 72 °F 71% WSW  at  1.0 mph 0.00 in / hr 372 ft 1:44 PM CDT Normal
Lawrence St., Caledonia, MS 82.8 °F 87 °F 71 °F 67% North  at  2.2 mph - / hr 295 ft 1:47 PM CDT Normal
Shiloh, Steens, MS 83.3 °F 87 °F 68 °F 61% West  at  3.7 mph - / hr 276 ft 1:44 PM CDT Normal
Near Intersection of Hwys 82, Columbus, MS 83.7 °F 87 °F 69 °F 61% WNW  at  8.0 mph 0.00 in / hr 154 ft 1:50 PM CDT Rapid Fire
WestWood II, West Point, MS 86.0 °F 88 °F 65 °F 50% South  at  3.2 mph 0.00 in / hr 240 ft 1:50 PM CDT Rapid Fire

Show More Stations Show Fewer Stations